Cala Pula — IBID — position and weather

sailwx.info

Track history (hours):
 
Tides and Currents Weather Stations Pressure Air Temp Water Temp Dewpoint Dewpoint Depression Visibility Wind Speed Wind Dir Waves Ship Positions

Cala Pula

Last reported at 2015-Apr-18 18:07 UTC. Time now 2015-May-05 14:16 UTC.
Position N 35°60' W 005°27'.
Warning: this ship's position is 16 days out of date.

Length 189 m; draft 7.6 m.

Type: Cargo ship. MMSI: 247585000.

Date/timePositionNaut miles runAvg speedWind from/ knotsBaromVisibWave heightAir tempDewpointWater temp
2015-Apr-18 18:07N 35°60' W 005°27'25921.9
2015-Apr-18 06:15N 37°21' W 000°20'19622.1
2015-Apr-17 21:22N 39°04' E 003°14'2122.9
2015-Apr-17 20:28N 39°15' E 003°36'37410.3
2015-Apr-16 08:20N 42°19' E 010°46'2422.0
2015-Apr-16 07:15N 42°33' E 010°21'3016.7
2015-Apr-16 05:28N 42°50' E 009°47'1 0.7
2015-Apr-16 04:09N 42°50' E 009°47'1315.4
2015-Apr-16 03:17N 43°02' E 009°37'1721.0
2015-Apr-16 02:28N 43°16' E 009°24'1920.9
2015-Apr-16 01:33N 43°32' E 009°09'1613.7
2015-Apr-16 00:22N 43°45' E 008°56'60 2.5
2015-Apr-15 00:29N 43°30' E 007°35'1718.1
2015-Apr-14 23:33N 43°20' E 007°17'1817.9
2015-Apr-14 22:33N 43°08' E 006°57'1817.8
2015-Apr-14 21:33N 42°57' E 006°38'2318.2
2015-Apr-14 20:18N 42°45' E 006°12'1418.4
2015-Apr-14 19:33N 42°40' E 005°55'1918.9
2015-Apr-14 18:32N 42°31' E 005°31'2319.6
2015-Apr-14 17:23N 42°22' E 005°04'1818.8
2015-Apr-14 16:25N 42°14' E 004°42'2523.0
2015-Apr-14 15:21N 42°04' E 004°11'7 1.2
2015-Apr-14 09:28N 42°00' E 004°03'2117.5
2015-Apr-14 08:17N 41°51' E 003°38'10418.2
2015-Apr-14 02:33N 41°03' E 001°35'233 7.8
2015-Apr-12 20:27N 37°31' W 000°32'1718.5
2015-Apr-12 19:33N 37°21' W 000°49'23818.3
2015-Apr-12 06:33N 35°58' W 005°27'  
Track history (hours):
 
Tides and Currents Weather Stations Pressure Air Temp Water Temp Dewpoint Dewpoint Depression Visibility Wind Speed Wind Dir Waves Ship Positions

Cala Pula

Last reported at 2015-Apr-18 18:07 UTC. Time now 2015-May-05 14:16 UTC.
Position N 35°60' W 005°27'.
Warning: this ship's position is 16 days out of date.

Length 189 m; draft 7.6 m.

Type: Cargo ship. MMSI: 247585000.

Date/timePositionNaut miles runAvg speedWind from/ knotsBaromVisibWave heightAir tempDewpointWater temp
2015-Apr-18 18:07N 35°60' W 005°27'25921.9
2015-Apr-18 06:15N 37°21' W 000°20'19622.1
2015-Apr-17 21:22N 39°04' E 003°14'2122.9
2015-Apr-17 20:28N 39°15' E 003°36'37410.3
2015-Apr-16 08:20N 42°19' E 010°46'2422.0
2015-Apr-16 07:15N 42°33' E 010°21'3016.7
2015-Apr-16 05:28N 42°50' E 009°47'1 0.7
2015-Apr-16 04:09N 42°50' E 009°47'1315.4
2015-Apr-16 03:17N 43°02' E 009°37'1721.0
2015-Apr-16 02:28N 43°16' E 009°24'1920.9
2015-Apr-16 01:33N 43°32' E 009°09'1613.7
2015-Apr-16 00:22N 43°45' E 008°56'60 2.5
2015-Apr-15 00:29N 43°30' E 007°35'1718.1
2015-Apr-14 23:33N 43°20' E 007°17'1817.9
2015-Apr-14 22:33N 43°08' E 006°57'1817.8
2015-Apr-14 21:33N 42°57' E 006°38'2318.2
2015-Apr-14 20:18N 42°45' E 006°12'1418.4
2015-Apr-14 19:33N 42°40' E 005°55'1918.9
2015-Apr-14 18:32N 42°31' E 005°31'2319.6
2015-Apr-14 17:23N 42°22' E 005°04'1818.8
2015-Apr-14 16:25N 42°14' E 004°42'2523.0
2015-Apr-14 15:21N 42°04' E 004°11'7 1.2
2015-Apr-14 09:28N 42°00' E 004°03'2117.5
2015-Apr-14 08:17N 41°51' E 003°38'10418.2
2015-Apr-14 02:33N 41°03' E 001°35'233 7.8
2015-Apr-12 20:27N 37°31' W 000°32'1718.5
2015-Apr-12 19:33N 37°21' W 000°49'23818.3
2015-Apr-12 06:33N 35°58' W 005°27'  

Dump ship's entire track history